Weather at Kansas City International Airport

Public forecast

Using degrees Fahrenheit for public forecast. Weather courtesy of forecast.io.

Current aviation weather report (METAR) for Kansas City International Airport

Report is more than 6 hours old.

2024/06/24 05:53 (retrieved 1 day ago)

KMCI 240553Z 16007KT 10SM CLR 22/18 A2989 RMK AO2 SLP111 T02220183 10311 20222 403170206 58002

Aviation forecast (TAF) for Kansas City International Airport

Forecast is more than 12 hours old.

2024/06/24 18:22 (retrieved 14 hours ago)

TAF KMCI 241720Z 2418/2518 20012G22KT P6SM SCT070 FM250100 19008KT P6SM SCT120 FM251500 21012G20KT P6SM SCT120